Terminal Aerodrome Forecast
Issued by NWS

Home | Current Version | Previous Version | Text Only | Print | Product List | Glossary On
Versions: 1 2 3 4 5 6 7 8 9 10 11 12 13 14 15 16
000
FTAK31 PANC 312342
TAFACD
TAF
PACD 312342Z 0100/0124 27020G30KT P6SM -SHRA OVC040
     FM010600 22025G40KT P6SM -SHRA BKN030 OVC040
     FM011000 28020G28KT P6SM -RA BKN010 OVC025=

USA.gov is the U.S. government's official web portal to all federal, state and local government web resources and services.